FIN9YA EDDB-EFHK
Flight info
| Callsign | FIN9YA |
|---|---|
| Flight time | 1h 34m |
| Altitude | 41000 |
| Route | GERGA3Q/06R GERGA M725 RENKI L132 DEMUR N746 GORPI DCT ALAMI DCT OKEVU DCT EVADI Y370 DIVAM |
| Aircraft | E190/M-SDE3GILORVW/S |
Departure
| Time | 2026-05-07 16:58 |
|---|---|
| Airport | Berlin Brandenburg Airport (EDDB) |
Arrival
| Time | 2026-05-07 18:32 |
|---|---|
| Airport | Helsinki Vantaa Airport (EFHK) |
| Time | Latitude | Longitude | Altitude | Speed | Heading |
|---|---|---|---|---|---|
| 2026-05-07 16:33 | 52.36093 | 13.51179 | 165 ft | 0 kts | 338° |
| 2026-05-07 16:47 | 52.36089 | 13.51182 | 165 ft | 2 kts | 339° |
| 2026-05-07 16:47 | 52.36074 | 13.51190 | 165 ft | 2 kts | 339° |
| 2026-05-07 16:47 | 52.36061 | 13.51199 | 165 ft | 2 kts | 339° |
| 2026-05-07 16:48 | 52.36047 | 13.51207 | 165 ft | 2 kts | 339° |
| 2026-05-07 16:48 | 52.36033 | 13.51216 | 166 ft | 2 kts | 339° |
| 2026-05-07 16:48 | 52.36019 | 13.51225 | 166 ft | 2 kts | 339° |
| 2026-05-07 16:48 | 52.36012 | 13.51229 | 166 ft | 0 kts | 339° |
| 2026-05-07 16:51 | 52.36013 | 13.51225 | 165 ft | 0 kts | 298° |
| 2026-05-07 16:51 | 52.36005 | 13.51191 | 165 ft | 6 kts | 247° |
| 2026-05-07 16:51 | 52.35978 | 13.51079 | 165 ft | 14 kts | 248° |
| 2026-05-07 16:51 | 52.35934 | 13.50894 | 166 ft | 19 kts | 248° |
| 2026-05-07 16:52 | 52.35894 | 13.50725 | 165 ft | 12 kts | 248° |
| 2026-05-07 16:52 | 52.35887 | 13.50698 | 165 ft | 1 kts | 248° |
| 2026-05-07 16:52 | 52.35870 | 13.50653 | 165 ft | 7 kts | 222° |
| 2026-05-07 16:52 | 52.35828 | 13.50635 | 165 ft | 3 kts | 170° |
| 2026-05-07 16:53 | 52.35803 | 13.50647 | 165 ft | 3 kts | 165° |
| 2026-05-07 16:53 | 52.35778 | 13.50626 | 165 ft | 5 kts | 236° |
| 2026-05-07 16:53 | 52.35752 | 13.50531 | 165 ft | 12 kts | 247° |
| 2026-05-07 16:53 | 52.35712 | 13.50361 | 165 ft | 19 kts | 248° |
| 2026-05-07 16:54 | 52.35665 | 13.50164 | 165 ft | 17 kts | 248° |
| 2026-05-07 16:54 | 52.35625 | 13.50001 | 165 ft | 14 kts | 247° |
| 2026-05-07 16:54 | 52.35590 | 13.49849 | 165 ft | 16 kts | 248° |
| 2026-05-07 16:54 | 52.35540 | 13.49639 | 165 ft | 22 kts | 249° |
| 2026-05-07 16:55 | 52.35503 | 13.49478 | 165 ft | 10 kts | 248° |
| 2026-05-07 16:55 | 52.35474 | 13.49364 | 165 ft | 11 kts | 247° |
| 2026-05-07 16:55 | 52.35446 | 13.49241 | 165 ft | 11 kts | 249° |
| 2026-05-07 16:55 | 52.35393 | 13.49179 | 165 ft | 10 kts | 166° |
| 2026-05-07 16:56 | 52.35347 | 13.49204 | 165 ft | 6 kts | 161° |
| 2026-05-07 16:56 | 52.35300 | 13.49231 | 165 ft | 7 kts | 155° |
| 2026-05-07 16:56 | 52.35243 | 13.49378 | 166 ft | 11 kts | 95° |
| 2026-05-07 16:57 | 52.35227 | 13.49543 | 165 ft | 18 kts | 95° |
| 2026-05-07 16:57 | 52.35227 | 13.49714 | 165 ft | 14 kts | 77° |
| 2026-05-07 16:57 | 52.35307 | 13.50061 | 165 ft | 72 kts | 69° |
| 2026-05-07 16:57 | 52.35599 | 13.51293 | 169 ft | 152 kts | 67° |
| 2026-05-07 16:58 | 52.36012 | 13.52987 | 808 ft | 172 kts | 74° |
| 2026-05-07 16:58 | 52.35885 | 13.54807 | 1912 ft | 155 kts | 116° |
| 2026-05-07 16:58 | 52.35074 | 13.55773 | 2921 ft | 148 kts | 166° |
| 2026-05-07 16:58 | 52.34084 | 13.55719 | 3547 ft | 154 kts | 168° |
| 2026-05-07 16:59 | 52.33054 | 13.56386 | 4056 ft | 161 kts | 135° |
| 2026-05-07 16:59 | 52.32330 | 13.57653 | 4792 ft | 157 kts | 120° |
| 2026-05-07 16:59 | 52.31769 | 13.59137 | 5501 ft | 157 kts | 118° |
| 2026-05-07 16:59 | 52.30833 | 13.60603 | 5140 ft | 205 kts | 139° |
| 2026-05-07 17:00 | 52.30072 | 13.62548 | 5325 ft | 220 kts | 96° |
| 2026-05-07 17:00 | 52.30405 | 13.65090 | 5761 ft | 245 kts | 56° |
| 2026-05-07 17:00 | 52.31374 | 13.67336 | 6775 ft | 249 kts | 59° |
| 2026-05-07 17:00 | 52.32089 | 13.69853 | 7947 ft | 245 kts | 70° |
| 2026-05-07 17:01 | 52.32564 | 13.72470 | 8949 ft | 246 kts | 75° |
| 2026-05-07 17:01 | 52.32766 | 13.75266 | 9654 ft | 259 kts | 89° |
| 2026-05-07 17:01 | 52.33033 | 13.78261 | 10060 ft | 282 kts | 64° |
| 2026-05-07 17:01 | 52.34324 | 13.80715 | 10615 ft | 296 kts | 30° |
| 2026-05-07 17:02 | 52.36299 | 13.81655 | 11361 ft | 302 kts | 358° |
| 2026-05-07 17:02 | 52.38350 | 13.80936 | 12132 ft | 308 kts | 342° |
| 2026-05-07 17:02 | 52.40414 | 13.79885 | 12883 ft | 317 kts | 346° |
| 2026-05-07 17:02 | 52.42603 | 13.79526 | 13662 ft | 324 kts | 0° |
| 2026-05-07 17:03 | 52.44838 | 13.79836 | 14507 ft | 329 kts | 7° |
| 2026-05-07 17:03 | 52.47120 | 13.80436 | 15384 ft | 332 kts | 9° |
| 2026-05-07 17:03 | 52.49377 | 13.81152 | 16219 ft | 335 kts | 11° |
| 2026-05-07 17:03 | 52.51654 | 13.81926 | 17031 ft | 339 kts | 11° |
| 2026-05-07 17:04 | 52.53948 | 13.82726 | 17806 ft | 343 kts | 11° |
| 2026-05-07 17:04 | 52.56281 | 13.83550 | 18567 ft | 347 kts | 11° |
| 2026-05-07 17:04 | 52.58658 | 13.84393 | 19353 ft | 350 kts | 12° |
| 2026-05-07 17:04 | 52.61031 | 13.85237 | 20133 ft | 353 kts | 12° |
| 2026-05-07 17:05 | 52.63440 | 13.86095 | 20900 ft | 357 kts | 12° |
| 2026-05-07 17:05 | 52.65831 | 13.86948 | 21623 ft | 360 kts | 12° |
| 2026-05-07 17:05 | 52.68294 | 13.87828 | 22330 ft | 364 kts | 12° |
| 2026-05-07 17:05 | 52.70776 | 13.88716 | 23028 ft | 368 kts | 12° |
| 2026-05-07 17:06 | 52.73254 | 13.89603 | 23707 ft | 371 kts | 12° |
| 2026-05-07 17:06 | 52.75801 | 13.90516 | 24404 ft | 375 kts | 12° |
| 2026-05-07 17:06 | 52.78335 | 13.91425 | 25086 ft | 378 kts | 12° |
| 2026-05-07 17:06 | 52.80914 | 13.92352 | 25759 ft | 381 kts | 13° |
| 2026-05-07 17:07 | 52.83477 | 13.93274 | 26393 ft | 385 kts | 12° |
| 2026-05-07 17:07 | 52.86102 | 13.94219 | 27027 ft | 389 kts | 13° |
| 2026-05-07 17:07 | 52.88779 | 13.95189 | 27668 ft | 393 kts | 14° |
| 2026-05-07 17:07 | 52.91362 | 13.96625 | 28254 ft | 396 kts | 24° |
| 2026-05-07 17:08 | 52.93751 | 13.98818 | 28846 ft | 400 kts | 34° |
| 2026-05-07 17:08 | 52.95990 | 14.01627 | 29458 ft | 403 kts | 37° |
| 2026-05-07 17:08 | 52.98224 | 14.04430 | 30069 ft | 406 kts | 37° |
| 2026-05-07 17:08 | 53.00478 | 14.07229 | 30632 ft | 410 kts | 36° |
| 2026-05-07 17:09 | 53.02760 | 14.10054 | 31185 ft | 414 kts | 37° |
| 2026-05-07 17:09 | 53.05065 | 14.12909 | 31576 ft | 419 kts | 37° |
| 2026-05-07 17:09 | 53.07402 | 14.15807 | 31925 ft | 424 kts | 37° |
| 2026-05-07 17:09 | 53.09780 | 14.18759 | 32315 ft | 428 kts | 37° |
| 2026-05-07 17:10 | 53.12164 | 14.21722 | 32692 ft | 431 kts | 37° |
| 2026-05-07 17:10 | 53.14582 | 14.24731 | 33067 ft | 432 kts | 37° |
| 2026-05-07 17:10 | 53.16991 | 14.27735 | 33435 ft | 434 kts | 37° |
| 2026-05-07 17:10 | 53.19393 | 14.30733 | 33781 ft | 436 kts | 37° |
| 2026-05-07 17:11 | 53.21812 | 14.33757 | 34090 ft | 438 kts | 37° |
| 2026-05-07 17:11 | 53.24278 | 14.36844 | 34390 ft | 441 kts | 37° |
| 2026-05-07 17:11 | 53.26742 | 14.39882 | 34734 ft | 442 kts | 33° |
| 2026-05-07 17:11 | 53.29396 | 14.42343 | 35094 ft | 443 kts | 24° |
| 2026-05-07 17:12 | 53.32225 | 14.44387 | 35476 ft | 443 kts | 23° |
| 2026-05-07 17:12 | 53.35019 | 14.46419 | 35830 ft | 442 kts | 23° |
| 2026-05-07 17:12 | 53.37833 | 14.48474 | 36200 ft | 442 kts | 23° |
| 2026-05-07 17:12 | 53.40657 | 14.50541 | 36544 ft | 441 kts | 23° |
| 2026-05-07 17:13 | 53.43459 | 14.52597 | 36843 ft | 442 kts | 22° |
| 2026-05-07 17:13 | 53.46276 | 14.54665 | 37141 ft | 443 kts | 22° |
| 2026-05-07 17:13 | 53.49062 | 14.56714 | 37418 ft | 443 kts | 22° |
| 2026-05-07 17:13 | 53.51886 | 14.58795 | 37700 ft | 443 kts | 22° |
| 2026-05-07 17:14 | 53.54694 | 14.60866 | 37959 ft | 444 kts | 22° |
| 2026-05-07 17:14 | 53.57502 | 14.62940 | 38199 ft | 444 kts | 22° |
| 2026-05-07 17:14 | 53.60310 | 14.65018 | 38438 ft | 445 kts | 23° |
| 2026-05-07 17:14 | 53.63162 | 14.67131 | 38685 ft | 445 kts | 23° |
| 2026-05-07 17:15 | 53.66014 | 14.69247 | 38937 ft | 445 kts | 23° |
| 2026-05-07 17:15 | 53.68842 | 14.71349 | 39180 ft | 446 kts | 23° |
| 2026-05-07 17:15 | 53.71666 | 14.73451 | 39423 ft | 446 kts | 23° |
| 2026-05-07 17:15 | 53.74472 | 14.75542 | 39663 ft | 446 kts | 23° |
| 2026-05-07 17:16 | 53.77314 | 14.77662 | 39881 ft | 446 kts | 23° |
| 2026-05-07 17:16 | 53.80155 | 14.79786 | 40108 ft | 446 kts | 23° |
| 2026-05-07 17:16 | 53.82990 | 14.81909 | 40320 ft | 446 kts | 23° |
| 2026-05-07 17:16 | 53.85799 | 14.84014 | 40527 ft | 446 kts | 23° |
| 2026-05-07 17:17 | 53.88633 | 14.86142 | 40741 ft | 446 kts | 23° |
| 2026-05-07 17:17 | 53.91463 | 14.88271 | 40946 ft | 446 kts | 23° |
| 2026-05-07 17:17 | 53.94309 | 14.90414 | 41070 ft | 445 kts | 23° |
| 2026-05-07 17:17 | 53.97127 | 14.92539 | 41088 ft | 449 kts | 23° |
| 2026-05-07 17:18 | 54.02890 | 14.96896 | 41098 ft | 458 kts | 23° |
| 2026-05-07 17:18 | 54.08743 | 15.01331 | 41097 ft | 467 kts | 23° |
| 2026-05-07 17:19 | 54.14723 | 15.05847 | 41096 ft | 474 kts | 23° |
| 2026-05-07 17:19 | 54.20752 | 15.10417 | 41094 ft | 476 kts | 22° |
| 2026-05-07 17:20 | 54.26768 | 15.14990 | 41097 ft | 474 kts | 22° |
| 2026-05-07 17:20 | 54.32777 | 15.19574 | 41100 ft | 474 kts | 22° |
| 2026-05-07 17:21 | 54.38776 | 15.24164 | 41101 ft | 474 kts | 22° |
| 2026-05-07 17:21 | 54.44746 | 15.28769 | 41100 ft | 474 kts | 23° |
| 2026-05-07 17:22 | 54.50721 | 15.33394 | 41101 ft | 473 kts | 23° |
| 2026-05-07 17:22 | 54.56747 | 15.38073 | 41099 ft | 474 kts | 23° |
| 2026-05-07 17:23 | 54.62710 | 15.42719 | 41103 ft | 474 kts | 23° |
| 2026-05-07 17:23 | 54.68687 | 15.47390 | 41107 ft | 474 kts | 23° |
| 2026-05-07 17:24 | 54.74665 | 15.52078 | 41107 ft | 473 kts | 22° |
| 2026-05-07 17:24 | 54.80650 | 15.56786 | 41105 ft | 473 kts | 22° |
| 2026-05-07 17:25 | 54.86641 | 15.61513 | 41109 ft | 474 kts | 22° |
| 2026-05-07 17:25 | 54.92564 | 15.66482 | 41104 ft | 475 kts | 31° |
| 2026-05-07 17:26 | 54.98109 | 15.72661 | 41111 ft | 475 kts | 32° |
| 2026-05-07 17:26 | 55.03640 | 15.78847 | 41113 ft | 475 kts | 32° |
| 2026-05-07 17:27 | 55.09187 | 15.85068 | 41113 ft | 475 kts | 32° |
| 2026-05-07 17:27 | 55.14739 | 15.91316 | 41111 ft | 475 kts | 32° |
| 2026-05-07 17:28 | 55.20267 | 15.97557 | 41111 ft | 476 kts | 32° |
| 2026-05-07 17:28 | 55.25786 | 16.03808 | 41112 ft | 476 kts | 32° |
| 2026-05-07 17:29 | 55.31304 | 16.10080 | 41112 ft | 476 kts | 32° |
| 2026-05-07 17:29 | 55.36873 | 16.16432 | 41111 ft | 476 kts | 32° |
| 2026-05-07 17:30 | 55.42384 | 16.22738 | 41113 ft | 477 kts | 32° |
| 2026-05-07 17:30 | 55.47915 | 16.29089 | 41111 ft | 477 kts | 32° |
| 2026-05-07 17:31 | 55.53464 | 16.35481 | 41114 ft | 476 kts | 32° |
| 2026-05-07 17:31 | 55.58964 | 16.41840 | 41115 ft | 476 kts | 32° |
| 2026-05-07 17:32 | 55.64480 | 16.48239 | 41111 ft | 477 kts | 32° |
| 2026-05-07 17:32 | 55.70009 | 16.54674 | 41113 ft | 477 kts | 32° |
| 2026-05-07 17:33 | 55.75514 | 16.61105 | 41112 ft | 477 kts | 31° |
| 2026-05-07 17:33 | 55.81058 | 16.67602 | 41110 ft | 479 kts | 32° |
| 2026-05-07 17:34 | 55.86607 | 16.74129 | 41113 ft | 478 kts | 32° |
| 2026-05-07 17:34 | 55.92115 | 16.80629 | 41115 ft | 478 kts | 32° |
| 2026-05-07 17:35 | 55.97658 | 16.87194 | 41113 ft | 478 kts | 32° |
| 2026-05-07 17:35 | 56.03136 | 16.93704 | 41113 ft | 477 kts | 32° |
| 2026-05-07 17:36 | 56.08670 | 17.00304 | 41115 ft | 477 kts | 32° |
| 2026-05-07 17:36 | 56.14152 | 17.06864 | 41112 ft | 477 kts | 32° |
| 2026-05-07 17:37 | 56.19675 | 17.13497 | 41111 ft | 478 kts | 32° |
| 2026-05-07 17:37 | 56.25185 | 17.20137 | 41112 ft | 480 kts | 32° |
| 2026-05-07 17:38 | 56.30671 | 17.26772 | 41112 ft | 479 kts | 32° |
| 2026-05-07 17:38 | 56.36198 | 17.33480 | 41113 ft | 479 kts | 32° |
| 2026-05-07 17:39 | 56.41688 | 17.40167 | 41113 ft | 479 kts | 32° |
| 2026-05-07 17:39 | 56.47188 | 17.46891 | 41112 ft | 479 kts | 32° |
| 2026-05-07 17:40 | 56.52655 | 17.53596 | 41113 ft | 478 kts | 32° |
| 2026-05-07 17:40 | 56.58150 | 17.60361 | 41114 ft | 479 kts | 32° |
| 2026-05-07 17:41 | 56.63649 | 17.67155 | 41111 ft | 480 kts | 33° |
| 2026-05-07 17:41 | 56.69141 | 17.73965 | 41111 ft | 481 kts | 33° |
| 2026-05-07 17:42 | 56.74627 | 17.80792 | 41111 ft | 481 kts | 33° |
| 2026-05-07 17:42 | 56.80123 | 17.87656 | 41111 ft | 480 kts | 33° |
| 2026-05-07 17:43 | 56.85626 | 17.94554 | 41111 ft | 480 kts | 32° |
| 2026-05-07 17:43 | 56.91113 | 18.01456 | 41113 ft | 481 kts | 32° |
| 2026-05-07 17:44 | 56.96576 | 18.08353 | 41111 ft | 481 kts | 32° |
| 2026-05-07 17:44 | 57.02071 | 18.15316 | 41114 ft | 481 kts | 32° |
| 2026-05-07 17:45 | 57.07560 | 18.22296 | 41109 ft | 482 kts | 32° |
| 2026-05-07 17:45 | 57.13055 | 18.29312 | 41108 ft | 482 kts | 32° |
| 2026-05-07 17:46 | 57.18518 | 18.36310 | 41108 ft | 482 kts | 32° |
| 2026-05-07 17:46 | 57.24021 | 18.43386 | 41111 ft | 483 kts | 32° |
| 2026-05-07 17:47 | 57.29503 | 18.50461 | 41112 ft | 482 kts | 32° |
| 2026-05-07 17:47 | 57.34954 | 18.57524 | 41110 ft | 483 kts | 32° |
| 2026-05-07 17:48 | 57.40460 | 18.64683 | 41110 ft | 482 kts | 32° |
| 2026-05-07 17:48 | 57.45914 | 18.71800 | 41109 ft | 483 kts | 33° |
| 2026-05-07 17:49 | 57.51365 | 18.78942 | 41110 ft | 483 kts | 33° |
| 2026-05-07 17:49 | 57.56850 | 18.86155 | 41109 ft | 485 kts | 33° |
| 2026-05-07 17:50 | 57.62342 | 18.93403 | 41109 ft | 484 kts | 33° |
| 2026-05-07 17:50 | 57.67782 | 19.00610 | 41110 ft | 484 kts | 33° |
| 2026-05-07 17:51 | 57.73271 | 19.07910 | 41112 ft | 485 kts | 33° |
| 2026-05-07 17:51 | 57.78742 | 19.15213 | 41112 ft | 484 kts | 33° |
| 2026-05-07 17:52 | 57.84201 | 19.22527 | 41113 ft | 485 kts | 33° |
| 2026-05-07 17:52 | 57.89676 | 19.29893 | 41112 ft | 486 kts | 33° |
| 2026-05-07 17:53 | 57.95142 | 19.37273 | 41114 ft | 485 kts | 33° |
| 2026-05-07 17:53 | 58.00568 | 19.44628 | 41115 ft | 485 kts | 33° |
| 2026-05-07 17:54 | 58.06046 | 19.52081 | 41107 ft | 486 kts | 33° |
| 2026-05-07 17:54 | 58.11477 | 19.59500 | 41108 ft | 485 kts | 33° |
| 2026-05-07 17:55 | 58.16936 | 19.66985 | 41107 ft | 487 kts | 33° |
| 2026-05-07 17:55 | 58.22376 | 19.74472 | 41108 ft | 487 kts | 33° |
| 2026-05-07 17:56 | 58.27829 | 19.82008 | 41112 ft | 486 kts | 33° |
| 2026-05-07 17:56 | 58.33277 | 19.89565 | 41116 ft | 487 kts | 33° |
| 2026-05-07 17:57 | 58.37823 | 19.95895 | 41114 ft | 487 kts | 33° |
| 2026-05-07 17:57 | 58.44165 | 20.04758 | 41118 ft | 488 kts | 33° |
| 2026-05-07 17:58 | 58.49627 | 20.12425 | 41114 ft | 487 kts | 33° |
| 2026-05-07 17:58 | 58.55018 | 20.20021 | 41114 ft | 486 kts | 33° |
| 2026-05-07 17:59 | 58.60452 | 20.27708 | 41116 ft | 487 kts | 33° |
| 2026-05-07 17:59 | 58.65856 | 20.35383 | 41111 ft | 487 kts | 33° |
| 2026-05-07 18:00 | 58.71296 | 20.43140 | 41112 ft | 487 kts | 33° |
| 2026-05-07 18:00 | 58.76684 | 20.50854 | 41111 ft | 487 kts | 33° |
| 2026-05-07 18:01 | 58.82124 | 20.58673 | 41120 ft | 489 kts | 33° |
| 2026-05-07 18:01 | 58.87526 | 20.66467 | 41112 ft | 489 kts | 34° |
| 2026-05-07 18:02 | 58.95655 | 20.78257 | 41113 ft | 489 kts | 34° |
| 2026-05-07 18:03 | 59.01085 | 20.86181 | 41112 ft | 489 kts | 36° |
| 2026-05-07 18:03 | 59.05658 | 20.95446 | 41120 ft | 475 kts | 50° |
| 2026-05-07 18:04 | 59.09349 | 21.06127 | 41134 ft | 479 kts | 57° |
| 2026-05-07 18:04 | 59.12813 | 21.17078 | 41125 ft | 479 kts | 57° |
| 2026-05-07 18:05 | 59.16291 | 21.28096 | 41118 ft | 479 kts | 57° |
| 2026-05-07 18:05 | 59.19756 | 21.39144 | 41102 ft | 480 kts | 57° |
| 2026-05-07 18:06 | 59.23203 | 21.50183 | 40749 ft | 485 kts | 57° |
| 2026-05-07 18:06 | 59.24946 | 21.55788 | 40231 ft | 484 kts | 57° |
| 2026-05-07 18:06 | 59.26699 | 21.61440 | 39672 ft | 482 kts | 57° |
| 2026-05-07 18:06 | 59.28404 | 21.66944 | 39163 ft | 480 kts | 57° |
| 2026-05-07 18:07 | 59.30115 | 21.72484 | 38634 ft | 478 kts | 57° |
| 2026-05-07 18:07 | 59.31829 | 21.78048 | 38114 ft | 479 kts | 57° |
| 2026-05-07 18:07 | 59.33546 | 21.83632 | 37599 ft | 480 kts | 57° |
| 2026-05-07 18:07 | 59.35247 | 21.89182 | 37065 ft | 478 kts | 57° |
| 2026-05-07 18:08 | 59.36951 | 21.94752 | 36535 ft | 477 kts | 57° |
| 2026-05-07 18:08 | 59.38622 | 22.00230 | 36040 ft | 476 kts | 57° |
| 2026-05-07 18:08 | 59.40311 | 22.05776 | 35504 ft | 475 kts | 56° |
| 2026-05-07 18:08 | 59.42004 | 22.11348 | 34999 ft | 476 kts | 56° |
| 2026-05-07 18:09 | 59.43692 | 22.16920 | 34452 ft | 477 kts | 56° |
| 2026-05-07 18:09 | 59.45373 | 22.22482 | 33923 ft | 478 kts | 56° |
| 2026-05-07 18:09 | 59.47051 | 22.28046 | 33375 ft | 479 kts | 56° |
| 2026-05-07 18:09 | 59.48757 | 22.33716 | 32835 ft | 482 kts | 56° |
| 2026-05-07 18:10 | 59.50445 | 22.39343 | 32303 ft | 483 kts | 56° |
| 2026-05-07 18:10 | 59.52137 | 22.44998 | 31770 ft | 486 kts | 56° |
| 2026-05-07 18:10 | 59.53863 | 22.50774 | 31226 ft | 488 kts | 56° |
| 2026-05-07 18:10 | 59.55571 | 22.56509 | 30675 ft | 487 kts | 56° |
| 2026-05-07 18:11 | 59.57261 | 22.62198 | 30132 ft | 483 kts | 56° |
| 2026-05-07 18:11 | 59.58384 | 22.65985 | 29778 ft | 479 kts | 56° |
| 2026-05-07 18:11 | 59.60616 | 22.73530 | 29066 ft | 475 kts | 56° |
| 2026-05-07 18:11 | 59.62262 | 22.79113 | 28544 ft | 472 kts | 57° |
| 2026-05-07 18:12 | 59.63893 | 22.84658 | 28028 ft | 469 kts | 56° |
| 2026-05-07 18:12 | 59.65534 | 22.90245 | 27507 ft | 466 kts | 56° |
| 2026-05-07 18:12 | 59.67134 | 22.95709 | 26999 ft | 463 kts | 56° |
| 2026-05-07 18:12 | 59.68730 | 23.01173 | 26493 ft | 460 kts | 56° |
| 2026-05-07 18:13 | 59.70329 | 23.06657 | 25978 ft | 457 kts | 57° |
| 2026-05-07 18:13 | 59.71901 | 23.12066 | 25480 ft | 454 kts | 56° |
| 2026-05-07 18:13 | 59.73474 | 23.17491 | 24978 ft | 453 kts | 56° |
| 2026-05-07 18:13 | 59.75021 | 23.22832 | 24480 ft | 449 kts | 57° |
| 2026-05-07 18:14 | 59.76553 | 23.28140 | 23995 ft | 446 kts | 56° |
| 2026-05-07 18:14 | 59.78098 | 23.33506 | 23492 ft | 442 kts | 56° |
| 2026-05-07 18:14 | 59.79589 | 23.38694 | 23020 ft | 437 kts | 56° |
| 2026-05-07 18:14 | 59.81094 | 23.43942 | 22525 ft | 432 kts | 56° |
| 2026-05-07 18:15 | 59.82558 | 23.49062 | 22060 ft | 427 kts | 56° |
| 2026-05-07 18:15 | 59.84009 | 23.54143 | 21590 ft | 422 kts | 56° |
| 2026-05-07 18:15 | 59.85444 | 23.59182 | 21121 ft | 419 kts | 56° |
| 2026-05-07 18:15 | 59.86867 | 23.64189 | 20662 ft | 414 kts | 56° |
| 2026-05-07 18:16 | 59.88278 | 23.69165 | 20196 ft | 410 kts | 57° |
| 2026-05-07 18:16 | 59.89663 | 23.74059 | 19741 ft | 406 kts | 57° |
| 2026-05-07 18:16 | 59.91018 | 23.78856 | 19309 ft | 402 kts | 56° |
| 2026-05-07 18:16 | 59.92392 | 23.83735 | 18850 ft | 398 kts | 56° |
| 2026-05-07 18:17 | 59.93728 | 23.88486 | 18409 ft | 394 kts | 56° |
| 2026-05-07 18:17 | 59.95056 | 23.93220 | 17981 ft | 390 kts | 56° |
| 2026-05-07 18:17 | 59.96363 | 23.97886 | 17553 ft | 387 kts | 56° |
| 2026-05-07 18:17 | 59.97666 | 24.02553 | 17126 ft | 383 kts | 56° |
| 2026-05-07 18:18 | 59.98944 | 24.07131 | 16705 ft | 381 kts | 56° |
| 2026-05-07 18:18 | 60.00218 | 24.11710 | 16232 ft | 378 kts | 57° |
| 2026-05-07 18:18 | 60.01494 | 24.16304 | 15811 ft | 374 kts | 57° |
| 2026-05-07 18:18 | 60.02744 | 24.20814 | 15404 ft | 371 kts | 57° |
| 2026-05-07 18:19 | 60.03976 | 24.25267 | 14995 ft | 368 kts | 57° |
| 2026-05-07 18:19 | 60.05212 | 24.29745 | 14592 ft | 366 kts | 57° |
| 2026-05-07 18:19 | 60.06422 | 24.34136 | 14193 ft | 363 kts | 57° |
| 2026-05-07 18:19 | 60.07629 | 24.38522 | 13803 ft | 360 kts | 57° |
| 2026-05-07 18:20 | 60.08825 | 24.42882 | 13409 ft | 356 kts | 57° |
| 2026-05-07 18:20 | 60.10006 | 24.47192 | 13004 ft | 352 kts | 57° |
| 2026-05-07 18:20 | 60.11166 | 24.51433 | 12643 ft | 348 kts | 57° |
| 2026-05-07 18:20 | 60.12333 | 24.55707 | 12233 ft | 345 kts | 58° |
| 2026-05-07 18:21 | 60.13457 | 24.59835 | 11859 ft | 341 kts | 58° |
| 2026-05-07 18:21 | 60.14577 | 24.63954 | 11499 ft | 334 kts | 58° |
| 2026-05-07 18:21 | 60.15671 | 24.67987 | 11091 ft | 325 kts | 59° |
| 2026-05-07 18:21 | 60.16729 | 24.71890 | 10796 ft | 314 kts | 59° |
| 2026-05-07 18:22 | 60.17755 | 24.75684 | 10401 ft | 305 kts | 59° |
| 2026-05-07 18:22 | 60.18421 | 24.78149 | 10223 ft | 299 kts | 59° |
| 2026-05-07 18:22 | 60.19722 | 24.82972 | 9760 ft | 289 kts | 59° |
| 2026-05-07 18:22 | 60.20659 | 24.86452 | 9471 ft | 286 kts | 59° |
| 2026-05-07 18:23 | 60.21611 | 24.89992 | 9160 ft | 285 kts | 59° |
| 2026-05-07 18:23 | 60.22542 | 24.93458 | 8851 ft | 284 kts | 59° |
| 2026-05-07 18:23 | 60.23480 | 24.96960 | 8533 ft | 283 kts | 59° |
| 2026-05-07 18:23 | 60.24399 | 25.00397 | 8226 ft | 280 kts | 59° |
| 2026-05-07 18:24 | 60.25317 | 25.03834 | 7919 ft | 278 kts | 59° |
| 2026-05-07 18:24 | 60.26333 | 25.07083 | 7609 ft | 273 kts | 41° |
| 2026-05-07 18:24 | 60.27959 | 25.08876 | 7341 ft | 267 kts | 13° |
| 2026-05-07 18:24 | 60.29744 | 25.09792 | 7014 ft | 265 kts | 12° |
| 2026-05-07 18:25 | 60.31511 | 25.10679 | 6712 ft | 262 kts | 12° |
| 2026-05-07 18:25 | 60.33260 | 25.11553 | 6427 ft | 261 kts | 12° |
| 2026-05-07 18:25 | 60.35025 | 25.12278 | 6125 ft | 259 kts | 359° |
| 2026-05-07 18:25 | 60.36726 | 25.11351 | 5865 ft | 257 kts | 335° |
| 2026-05-07 18:26 | 60.38329 | 25.09775 | 5561 ft | 257 kts | 334° |
| 2026-05-07 18:26 | 60.39917 | 25.08177 | 5270 ft | 255 kts | 333° |
| 2026-05-07 18:26 | 60.41515 | 25.06554 | 4984 ft | 254 kts | 333° |
| 2026-05-07 18:26 | 60.43087 | 25.04950 | 4743 ft | 251 kts | 333° |
| 2026-05-07 18:27 | 60.44568 | 25.03432 | 4726 ft | 233 kts | 333° |
| 2026-05-07 18:27 | 60.45983 | 25.01980 | 4667 ft | 221 kts | 333° |
| 2026-05-07 18:27 | 60.47327 | 25.00598 | 4505 ft | 216 kts | 333° |
| 2026-05-07 18:27 | 60.48391 | 24.98575 | 4295 ft | 211 kts | 293° |
| 2026-05-07 18:28 | 60.48468 | 24.95639 | 4047 ft | 219 kts | 253° |
| 2026-05-07 18:28 | 60.47874 | 24.92809 | 3756 ft | 221 kts | 248° |
| 2026-05-07 18:28 | 60.47221 | 24.90014 | 3463 ft | 219 kts | 247° |
| 2026-05-07 18:28 | 60.46552 | 24.87252 | 3205 ft | 215 kts | 244° |
| 2026-05-07 18:29 | 60.45455 | 24.85294 | 2996 ft | 215 kts | 199° |
| 2026-05-07 18:29 | 60.44014 | 24.85353 | 2720 ft | 213 kts | 159° |
| 2026-05-07 18:29 | 60.42660 | 24.86529 | 2424 ft | 208 kts | 153° |
| 2026-05-07 18:29 | 60.41423 | 24.87839 | 2113 ft | 195 kts | 153° |
| 2026-05-07 18:30 | 60.40284 | 24.89009 | 1875 ft | 175 kts | 154° |
| 2026-05-07 18:30 | 60.39216 | 24.90107 | 1610 ft | 168 kts | 154° |
| 2026-05-07 18:30 | 60.38192 | 24.91159 | 1373 ft | 162 kts | 154° |
| 2026-05-07 18:30 | 60.37234 | 24.92145 | 1142 ft | 145 kts | 154° |
| 2026-05-07 18:31 | 60.36388 | 24.93013 | 943 ft | 131 kts | 154° |
| 2026-05-07 18:31 | 60.35599 | 24.93822 | 782 ft | 127 kts | 154° |
| 2026-05-07 18:31 | 60.34813 | 24.94628 | 621 ft | 127 kts | 154° |
| 2026-05-07 18:31 | 60.34031 | 24.95434 | 463 ft | 126 kts | 153° |
| 2026-05-07 18:32 | 60.33247 | 24.96235 | 272 ft | 125 kts | 155° |
| 2026-05-07 18:32 | 60.32500 | 24.96991 | 189 ft | 112 kts | 155° |
| 2026-05-07 18:32 | 60.31942 | 24.97561 | 188 ft | 64 kts | 154° |
| 2026-05-07 18:32 | 60.31746 | 24.97731 | 188 ft | 11 kts | 183° |
| 2026-05-07 18:33 | 60.31691 | 24.97682 | 188 ft | 7 kts | 225° |
| 2026-05-07 18:33 | 60.31675 | 24.97631 | 188 ft | 2 kts | 243° |
| 2026-05-07 18:33 | 60.31671 | 24.97618 | 188 ft | 0 kts | 242° |
| 2026-05-07 18:34 | 60.31664 | 24.97591 | 188 ft | 5 kts | 242° |
| 2026-05-07 18:34 | 60.31636 | 24.97481 | 188 ft | 10 kts | 248° |
| 2026-05-07 18:34 | 60.31655 | 24.97370 | 188 ft | 9 kts | 330° |
| 2026-05-07 18:35 | 60.31688 | 24.97334 | 188 ft | 2 kts | 330° |
| 2026-05-07 18:35 | 60.31695 | 24.97305 | 188 ft | 2 kts | 265° |
| 2026-05-07 18:35 | 60.31687 | 24.97261 | 188 ft | 3 kts | 244° |
| 2026-05-07 18:35 | 60.31675 | 24.97213 | 188 ft | 2 kts | 243° |
| 2026-05-07 18:36 | 60.31674 | 24.97209 | 188 ft | 0 kts | 243° |